createdAt,value
2023-02-15T00:00:30.340Z,20.73
2023-02-15T00:02:58.974Z,27.93
2023-02-15T00:05:30.607Z,24.83
2023-02-15T00:07:58.967Z,25.67
2023-02-15T00:10:28.276Z,21.33
2023-02-15T00:12:56.530Z,21.03
2023-02-15T00:15:26.931Z,21.77
2023-02-15T00:17:56.724Z,26.87
2023-02-15T00:20:25.062Z,21.83
2023-02-15T00:22:56.012Z,24.13
2023-02-15T00:25:24.312Z,26.93
2023-02-15T00:27:53.586Z,25.00
2023-02-15T00:30:23.136Z,22.30
2023-02-15T00:32:52.200Z,23.47
2023-02-15T00:35:20.547Z,28.87
2023-02-15T00:37:49.977Z,22.47
2023-02-15T00:40:20.090Z,21.10
2023-02-15T00:42:48.840Z,27.07
2023-02-15T00:45:17.447Z,27.30
2023-02-15T00:47:47.776Z,22.57
2023-02-15T00:50:17.605Z,19.93
2023-02-15T00:52:48.622Z,19.83
2023-02-15T00:55:17.532Z,24.80
2023-02-15T00:57:47.715Z,24.60
2023-02-15T01:00:16.461Z,21.90
2023-02-15T01:02:46.292Z,30.50
2023-02-15T01:05:14.765Z,39.47
2023-02-15T01:07:43.447Z,20.93
2023-02-15T01:10:12.472Z,25.67
2023-02-15T01:12:40.796Z,22.23
2023-02-15T01:15:11.223Z,33.40
2023-02-15T01:17:39.936Z,23.17
2023-02-15T01:20:09.881Z,29.33
2023-02-15T01:22:38.200Z,24.87
2023-02-15T01:25:07.353Z,36.73
2023-02-15T01:27:36.084Z,30.17
2023-02-15T01:30:06.670Z,30.07
2023-02-15T01:32:36.393Z,31.13
2023-02-15T01:35:05.070Z,21.17
2023-02-15T01:37:34.198Z,23.73
2023-02-15T01:40:03.284Z,24.50
2023-02-15T01:42:32.061Z,31.70
2023-02-15T01:45:02.597Z,24.57
2023-02-15T01:47:38.179Z,21.90
2023-02-15T01:50:14.695Z,21.67
2023-02-15T01:52:49.614Z,19.17
2023-02-15T01:55:18.605Z,19.57
2023-02-15T01:57:48.916Z,18.87
2023-02-15T02:00:18.984Z,20.90
2023-02-15T02:02:53.406Z,18.63
2023-02-15T02:05:28.367Z,18.67
2023-02-15T02:07:59.374Z,19.53
2023-02-15T02:10:28.238Z,16.93
2023-02-15T02:13:02.055Z,22.77
2023-02-15T02:15:41.091Z,31.40
2023-02-15T02:18:26.183Z,25.57
2023-02-15T02:21:45.199Z,29.47
2023-02-15T02:24:48.966Z,22.07
2023-02-15T02:27:28.074Z,32.73
2023-02-15T02:30:41.279Z,22.27
2023-02-15T02:33:40.605Z,25.87
2023-02-15T02:36:18.374Z,20.17
2023-02-15T02:39:02.872Z,26.73
2023-02-15T02:41:39.266Z,24.93
2023-02-15T02:44:15.772Z,30.50
2023-02-15T02:46:52.136Z,26.30
2023-02-15T02:49:35.704Z,28.53
2023-02-15T02:52:06.657Z,19.47
2023-02-15T02:54:37.864Z,20.70
2023-02-15T02:57:11.098Z,20.67
2023-02-15T02:59:48.480Z,20.23
2023-02-15T03:02:22.687Z,32.80
2023-02-15T03:04:59.921Z,32.00
2023-02-15T03:07:30.687Z,22.67
2023-02-15T03:10:04.283Z,23.83
2023-02-15T03:12:35.097Z,20.07
2023-02-15T03:15:09.978Z,21.17
2023-02-15T03:17:44.509Z,17.13
2023-02-15T03:20:17.959Z,25.23
2023-02-15T03:22:51.075Z,29.60
2023-02-15T03:25:24.452Z,22.43
2023-02-15T03:27:58.188Z,31.27
2023-02-15T03:30:28.753Z,29.37
2023-02-15T03:33:01.408Z,34.23
2023-02-15T03:35:38.503Z,31.80
2023-02-15T03:38:11.490Z,21.00
2023-02-15T03:40:59.779Z,29.43
2023-02-15T03:43:35.710Z,25.23
2023-02-15T03:46:10.741Z,23.97
2023-02-15T03:48:43.493Z,20.10
2023-02-15T03:51:35.362Z,20.07
2023-02-15T03:54:09.550Z,27.27
2023-02-15T03:56:39.903Z,20.47
2023-02-15T03:59:27.156Z,19.37
2023-02-15T04:02:08.637Z,21.67
2023-02-15T04:04:38.971Z,20.83
2023-02-15T04:07:10.862Z,25.60
2023-02-15T04:09:57.094Z,19.53
2023-02-15T04:12:26.478Z,20.37
2023-02-15T04:15:12.298Z,29.20
2023-02-15T04:17:41.602Z,21.13
2023-02-15T04:20:28.322Z,21.03
2023-02-15T04:23:16.516Z,20.80
2023-02-15T04:25:44.927Z,19.53
2023-02-15T04:28:14.781Z,22.27
2023-02-15T04:30:43.133Z,22.07
2023-02-15T04:33:12.348Z,20.10
2023-02-15T04:35:40.659Z,22.63
2023-02-15T04:38:11.377Z,18.97
2023-02-15T04:40:39.840Z,19.37
2023-02-15T04:43:08.664Z,20.33
2023-02-15T04:45:37.041Z,19.43
2023-02-15T04:48:06.030Z,21.87
2023-02-15T04:50:34.337Z,22.50
2023-02-15T04:53:02.726Z,21.20
2023-02-15T04:55:32.883Z,20.17
2023-02-15T04:58:01.228Z,20.37
2023-02-15T05:00:30.151Z,19.87
2023-02-15T05:02:58.512Z,19.70
2023-02-15T05:05:27.639Z,19.20
2023-02-15T05:07:56.075Z,19.93
2023-02-15T05:10:24.938Z,19.57
2023-02-15T05:12:54.780Z,18.30
2023-02-15T05:15:24.946Z,20.77
2023-02-15T05:17:53.791Z,23.47
2023-02-15T05:20:22.149Z,22.87
2023-02-15T05:22:51.043Z,20.10
2023-02-15T05:25:36.899Z,20.00
2023-02-15T05:28:22.822Z,23.83
2023-02-15T05:31:02.261Z,21.33
2023-02-15T05:33:31.243Z,23.17
2023-02-15T05:36:01.355Z,23.03
2023-02-15T05:38:31.212Z,23.37
2023-02-15T05:41:00.344Z,21.73
2023-02-15T05:43:30.448Z,23.03
2023-02-15T05:45:59.406Z,23.73
2023-02-15T05:48:29.418Z,22.37
2023-02-15T05:51:02.104Z,22.70
2023-02-15T05:53:32.521Z,21.50
2023-02-15T05:56:01.618Z,19.37
2023-02-15T05:58:34.875Z,25.03
2023-02-15T06:01:10.057Z,20.23
2023-02-15T06:03:38.920Z,22.40
2023-02-15T06:06:07.979Z,20.13
2023-02-15T06:08:38.621Z,19.73
2023-02-15T06:11:07.917Z,19.73
2023-02-15T06:13:38.988Z,18.40
2023-02-15T06:16:08.371Z,30.20
2023-02-15T06:18:37.057Z,20.07
2023-02-15T06:21:05.947Z,25.70
2023-02-15T06:23:34.289Z,29.33
2023-02-15T06:26:02.831Z,25.27
2023-02-15T06:28:32.497Z,34.17
2023-02-15T06:31:02.288Z,22.60
2023-02-15T06:33:34.718Z,25.13
2023-02-15T06:36:05.138Z,21.27
2023-02-15T06:38:33.606Z,22.57
2023-02-15T06:41:02.070Z,39.93
2023-02-15T06:43:30.472Z,30.33
2023-02-15T06:46:01.166Z,35.70
2023-02-15T06:48:31.085Z,40.40
2023-02-15T06:51:00.394Z,40.00
2023-02-15T06:53:28.765Z,27.53
2023-02-15T06:56:04.828Z,26.13
2023-02-15T06:58:33.174Z,30.13
2023-02-15T07:01:01.631Z,21.07
2023-02-15T07:03:32.601Z,21.07
2023-02-15T07:06:03.480Z,21.20
2023-02-15T07:08:32.651Z,23.70
2023-02-15T07:11:21.479Z,21.93
2023-02-15T07:13:50.262Z,23.47
2023-02-15T07:16:18.670Z,28.03
2023-02-15T07:18:49.804Z,31.03
2023-02-15T07:21:18.210Z,27.07
2023-02-15T07:23:47.569Z,24.13
2023-02-15T07:26:15.936Z,21.57
2023-02-15T07:28:45.913Z,22.43
2023-02-15T07:31:14.275Z,20.40
2023-02-15T07:33:43.342Z,20.40
2023-02-15T07:36:13.930Z,20.20
2023-02-15T07:38:44.079Z,25.63
2023-02-15T07:41:14.932Z,24.93
2023-02-15T07:43:45.003Z,18.97
2023-02-15T07:46:17.890Z,23.73
2023-02-15T07:48:47.300Z,24.27
2023-02-15T07:51:17.888Z,19.70
2023-02-15T07:53:46.740Z,23.70
2023-02-15T07:56:17.142Z,20.40
2023-02-15T07:58:56.594Z,20.00
2023-02-15T08:01:28.260Z,20.97
2023-02-15T08:03:57.895Z,18.17
2023-02-15T08:06:32.039Z,22.13
2023-02-15T08:09:01.772Z,19.80
2023-02-15T08:11:33.967Z,20.30
2023-02-15T08:14:05.546Z,21.57
2023-02-15T08:16:36.757Z,22.70
2023-02-15T08:19:08.636Z,22.33
2023-02-15T08:21:40.269Z,20.70
2023-02-15T08:24:10.662Z,18.90
2023-02-15T08:26:42.195Z,20.20
2023-02-15T08:29:12.124Z,22.50
2023-02-15T08:31:42.338Z,22.57
2023-02-15T08:34:12.382Z,23.33
2023-02-15T08:36:46.096Z,25.37
2023-02-15T08:39:15.909Z,20.67
2023-02-15T08:41:46.760Z,23.33
2023-02-15T08:44:17.238Z,21.07
2023-02-15T08:46:47.885Z,19.73
2023-02-15T08:49:19.526Z,21.47
2023-02-15T08:51:50.124Z,19.90
2023-02-15T08:54:20.984Z,21.77
2023-02-15T08:56:49.977Z,19.43
2023-02-15T08:59:21.806Z,19.50
2023-02-15T09:01:51.639Z,18.87
2023-02-15T09:04:20.223Z,18.47
2023-02-15T09:06:51.147Z,17.80
2023-02-15T09:09:21.896Z,18.27
2023-02-15T09:11:56.819Z,18.03
2023-02-15T09:14:28.453Z,17.37
2023-02-15T09:16:57.146Z,17.73
2023-02-15T09:19:26.812Z,18.80
2023-02-15T09:21:56.536Z,21.77
2023-02-15T09:24:25.716Z,20.73
2023-02-15T09:26:54.533Z,27.37
2023-02-15T09:29:24.087Z,24.07
2023-02-15T09:31:54.473Z,20.93
2023-02-15T09:34:24.366Z,18.20
2023-02-15T09:36:53.087Z,20.10
2023-02-15T09:39:25.054Z,21.57
2023-02-15T09:42:29.388Z,20.13
2023-02-15T09:45:09.337Z,18.77
2023-02-15T09:47:55.858Z,19.43
2023-02-15T09:50:36.384Z,21.23
2023-02-15T09:53:21.984Z,20.33
2023-02-15T09:56:01.215Z,19.03
2023-02-15T09:58:41.242Z,20.80
2023-02-15T10:01:20.983Z,19.13
2023-02-15T10:04:22.510Z,21.07
2023-02-15T10:07:04.070Z,18.93
2023-02-15T10:09:41.624Z,21.30
2023-02-15T10:12:36.876Z,19.63
2023-02-15T10:15:29.378Z,19.23
2023-02-15T10:18:18.018Z,18.97
2023-02-15T10:20:56.935Z,19.93
2023-02-15T10:23:52.915Z,17.70
2023-02-15T10:26:23.859Z,19.40
2023-02-15T10:28:59.903Z,19.33
2023-02-15T10:31:36.507Z,18.13
2023-02-15T10:34:18.142Z,18.47
2023-02-15T10:37:09.500Z,21.90
2023-02-15T10:39:48.073Z,21.13
2023-02-15T10:42:29.595Z,20.17
2023-02-15T10:45:13.617Z,21.77
2023-02-15T10:48:01.361Z,22.30
2023-02-15T10:50:45.621Z,21.80
2023-02-15T10:53:34.064Z,21.67
2023-02-15T10:56:13.488Z,21.77
2023-02-15T10:58:59.719Z,22.50
2023-02-15T11:01:37.071Z,22.90
2023-02-15T11:04:22.329Z,21.63
2023-02-15T11:06:55.215Z,19.20
2023-02-15T11:09:27.662Z,19.07
2023-02-15T11:12:01.019Z,19.10
2023-02-15T11:14:40.030Z,22.03
2023-02-15T11:17:16.645Z,21.17
2023-02-15T11:19:55.183Z,18.13
2023-02-15T11:22:24.406Z,19.07
2023-02-15T11:24:55.461Z,20.20
2023-02-15T11:27:27.997Z,21.00
2023-02-15T11:30:02.795Z,21.70
2023-02-15T11:32:35.914Z,20.27
2023-02-15T11:35:12.785Z,19.63
2023-02-15T11:37:47.074Z,23.47
2023-02-15T11:40:25.734Z,22.20
2023-02-15T11:42:57.636Z,21.40
2023-02-15T11:45:31.144Z,21.10
2023-02-15T11:48:02.712Z,22.37
2023-02-15T11:50:34.289Z,23.60
2023-02-15T11:53:06.944Z,24.00
2023-02-15T11:55:36.087Z,24.17
2023-02-15T11:58:12.239Z,25.17
2023-02-15T12:00:44.528Z,23.67
2023-02-15T12:03:23.385Z,24.13
2023-02-15T12:05:58.389Z,24.83
2023-02-15T12:08:27.756Z,22.97
2023-02-15T12:11:02.847Z,20.87
2023-02-15T12:13:31.594Z,23.17
2023-02-15T12:16:10.511Z,23.60
2023-02-15T12:18:45.230Z,21.70
2023-02-15T12:21:16.280Z,23.20
2023-02-15T12:23:50.139Z,22.70
2023-02-15T12:26:27.632Z,22.80
2023-02-15T12:29:03.532Z,21.37
2023-02-15T12:31:36.034Z,21.53
2023-02-15T12:34:14.755Z,22.57
2023-02-15T12:36:47.197Z,21.33
2023-02-15T12:39:22.252Z,21.50
2023-02-15T12:42:03.097Z,22.83
2023-02-15T12:44:35.135Z,23.57
2023-02-15T12:47:05.804Z,23.57
2023-02-15T12:49:37.007Z,25.53
2023-02-15T12:52:09.319Z,27.43
2023-02-15T12:54:41.498Z,25.00
2023-02-15T12:57:31.838Z,25.27
2023-02-15T13:00:03.503Z,27.37
2023-02-15T13:02:39.336Z,26.93
2023-02-15T13:05:20.741Z,26.77
2023-02-15T13:07:52.907Z,24.90
2023-02-15T13:10:26.474Z,24.60
2023-02-15T13:12:55.954Z,24.77
2023-02-15T13:15:29.160Z,24.10
2023-02-15T13:17:59.648Z,23.60
2023-02-15T13:20:30.525Z,24.57
2023-02-15T13:23:05.644Z,24.83
2023-02-15T13:25:42.457Z,23.43
2023-02-15T13:28:17.237Z,26.77
2023-02-15T13:30:48.041Z,25.13
2023-02-15T13:33:22.024Z,24.37
2023-02-15T13:36:01.630Z,26.63
2023-02-15T13:38:52.329Z,27.03
2023-02-15T13:41:25.794Z,28.17
2023-02-15T13:44:04.658Z,28.97
2023-02-15T13:46:51.074Z,28.87
2023-02-15T13:49:34.875Z,25.40
2023-02-15T13:52:15.663Z,27.13
2023-02-15T13:55:16.110Z,27.03
2023-02-15T13:58:28.834Z,29.43
2023-02-15T14:01:10.902Z,28.40
2023-02-15T14:04:10.613Z,29.77
2023-02-15T14:06:51.231Z,27.77
2023-02-15T14:09:33.417Z,28.67
2023-02-15T14:12:15.884Z,28.43
2023-02-15T14:15:02.409Z,29.97
2023-02-15T14:17:45.565Z,28.37
2023-02-15T14:20:22.032Z,30.07
2023-02-15T14:22:56.822Z,30.77
2023-02-15T14:25:31.632Z,29.63
2023-02-15T14:28:07.780Z,28.37
2023-02-15T14:30:41.644Z,30.73
2023-02-15T14:33:17.459Z,34.00
2023-02-15T14:35:46.514Z,28.10
2023-02-15T14:38:21.405Z,29.83
2023-02-15T14:41:04.182Z,28.77
2023-02-15T14:43:43.839Z,30.23
2023-02-15T14:46:22.211Z,36.97
2023-02-15T14:48:53.326Z,47.63
2023-02-15T14:51:58.214Z,33.33
2023-02-15T14:54:55.126Z,39.43
2023-02-15T14:57:28.592Z,33.57
2023-02-15T14:59:59.294Z,30.03
2023-02-15T15:02:32.026Z,29.63
2023-02-15T15:05:10.552Z,27.50
2023-02-15T15:07:46.545Z,27.33
2023-02-15T15:10:40.825Z,29.53
2023-02-15T15:13:53.504Z,29.17
2023-02-15T15:16:49.304Z,32.10
2023-02-15T15:19:57.191Z,27.60
2023-02-15T15:22:27.532Z,27.77
2023-02-15T15:24:57.856Z,28.13
2023-02-15T15:27:44.689Z,109.70
2023-02-15T15:30:52.581Z,31.67
2023-02-15T15:34:15.707Z,32.10
2023-02-15T15:37:25.734Z,30.60
2023-02-15T15:40:36.860Z,32.80
2023-02-15T15:43:37.197Z,35.50
2023-02-15T15:46:20.382Z,33.70
2023-02-15T15:48:48.938Z,33.37
2023-02-15T15:51:22.973Z,34.63
2023-02-15T15:53:54.207Z,34.27
2023-02-15T15:56:26.602Z,35.00
2023-02-15T15:58:58.193Z,32.07
2023-02-15T16:01:31.088Z,32.07
2023-02-15T16:04:01.352Z,34.00
2023-02-15T16:06:32.246Z,31.03
2023-02-15T16:09:13.022Z,31.17
2023-02-15T16:11:42.305Z,32.50
2023-02-15T16:14:15.068Z,31.07
2023-02-15T16:16:53.188Z,32.60
2023-02-15T16:19:26.231Z,31.60
2023-02-15T16:21:57.810Z,31.93
2023-02-15T16:24:57.840Z,32.63
2023-02-15T16:27:38.561Z,31.30
2023-02-15T16:30:24.655Z,36.33
2023-02-15T16:32:57.382Z,34.63
2023-02-15T16:35:25.852Z,33.03
2023-02-15T16:37:54.178Z,32.47
2023-02-15T16:40:36.505Z,34.60
2023-02-15T16:43:07.591Z,34.33
2023-02-15T16:45:38.601Z,33.03
2023-02-15T16:48:14.318Z,35.00
2023-02-15T16:50:50.283Z,33.63
2023-02-15T16:53:23.132Z,40.27
2023-02-15T16:55:55.081Z,34.27
2023-02-15T16:58:30.405Z,39.23
2023-02-15T17:01:01.877Z,32.70
2023-02-15T17:03:32.496Z,32.47
2023-02-15T17:06:03.880Z,32.83
2023-02-15T17:08:35.379Z,35.40
2023-02-15T17:11:22.194Z,32.07
2023-02-15T17:14:15.364Z,34.37
2023-02-15T17:16:49.856Z,36.60
2023-02-15T17:19:24.582Z,33.83
2023-02-15T17:21:56.123Z,33.53
2023-02-15T17:24:36.398Z,32.00
2023-02-15T17:27:12.368Z,33.77
2023-02-15T17:29:43.516Z,33.37
2023-02-15T17:32:19.153Z,32.80
2023-02-15T17:35:01.892Z,35.77
2023-02-15T17:37:33.280Z,32.17
2023-02-15T17:40:09.390Z,33.47
2023-02-15T17:42:37.723Z,36.80
2023-02-15T17:45:07.383Z,37.90
2023-02-15T17:47:36.276Z,32.80
2023-02-15T17:50:08.428Z,31.73
2023-02-15T17:52:38.101Z,31.83
2023-02-15T17:55:32.994Z,33.67
2023-02-15T17:58:02.469Z,32.70
2023-02-15T18:00:49.755Z,36.97
2023-02-15T18:03:36.687Z,35.13
2023-02-15T18:06:25.462Z,38.67
2023-02-15T18:09:12.693Z,40.87
2023-02-15T18:11:42.890Z,34.67
2023-02-15T18:14:12.036Z,35.73
2023-02-15T18:16:43.871Z,37.87
2023-02-15T18:19:16.161Z,34.80
2023-02-15T18:21:47.075Z,36.70
2023-02-15T18:24:20.544Z,35.70
2023-02-15T18:26:49.560Z,38.60
2023-02-15T18:29:17.941Z,46.37
2023-02-15T18:31:49.409Z,42.30
2023-02-15T18:34:26.007Z,52.63
2023-02-15T18:36:56.792Z,39.00
2023-02-15T18:39:28.432Z,36.50
2023-02-15T18:41:57.836Z,45.93
2023-02-15T18:44:27.253Z,42.63
2023-02-15T18:46:55.863Z,42.43
2023-02-15T18:49:24.433Z,37.03
2023-02-15T18:51:55.639Z,39.00
2023-02-15T18:54:26.792Z,38.80
2023-02-15T18:56:57.272Z,39.07
2023-02-15T18:59:28.509Z,37.67
2023-02-15T19:02:00.282Z,40.50
2023-02-15T19:04:29.244Z,37.23
2023-02-15T19:06:58.902Z,40.03
2023-02-15T19:09:28.107Z,45.83
2023-02-15T19:11:57.448Z,45.23
2023-02-15T19:14:29.557Z,44.83
2023-02-15T19:16:58.960Z,45.83
2023-02-15T19:19:28.499Z,39.50
2023-02-15T19:21:57.167Z,37.40
2023-02-15T19:24:37.298Z,35.63
2023-02-15T19:27:07.994Z,38.63
2023-02-15T19:29:36.731Z,45.03
2023-02-15T19:32:05.662Z,52.27
2023-02-15T19:34:34.809Z,39.53
2023-02-15T19:37:03.474Z,37.87
2023-02-15T19:39:38.950Z,37.73
2023-02-15T19:42:11.096Z,50.43
2023-02-15T19:44:43.777Z,35.30
2023-02-15T19:47:13.590Z,41.33
2023-02-15T19:49:42.302Z,43.97
2023-02-15T19:52:17.458Z,39.03
2023-02-15T19:54:49.182Z,39.80
2023-02-15T19:57:17.961Z,38.63
2023-02-15T19:59:46.320Z,38.40
2023-02-15T20:02:15.625Z,40.87
2023-02-15T20:04:44.459Z,46.87
2023-02-15T20:07:23.228Z,37.37
2023-02-15T20:09:53.364Z,33.17
2023-02-15T20:12:23.838Z,34.80
2023-02-15T20:14:53.684Z,31.27
2023-02-15T20:17:22.003Z,31.23
2023-02-15T20:19:50.966Z,31.77
2023-02-15T20:22:23.735Z,31.30
2023-02-15T20:24:55.609Z,30.97
2023-02-15T20:27:24.809Z,34.63
2023-02-15T20:29:56.702Z,34.17
2023-02-15T20:32:26.015Z,32.80
2023-02-15T20:34:54.642Z,47.50
2023-02-15T20:37:26.390Z,34.17
2023-02-15T20:39:56.415Z,35.53
2023-02-15T20:42:25.456Z,36.53
2023-02-15T20:44:53.787Z,33.53
2023-02-15T20:47:22.645Z,33.27
2023-02-15T20:49:51.608Z,35.57
2023-02-15T20:52:21.729Z,39.00
2023-02-15T20:54:50.769Z,36.47
2023-02-15T20:57:20.447Z,35.07
2023-02-15T20:59:49.096Z,63.40
2023-02-15T21:02:20.563Z,61.50
2023-02-15T21:04:48.919Z,37.73
2023-02-15T21:07:18.497Z,32.17
2023-02-15T21:09:47.964Z,37.77
2023-02-15T21:12:18.789Z,33.53
2023-02-15T21:14:49.186Z,31.30
2023-02-15T21:17:18.790Z,32.90
2023-02-15T21:19:47.190Z,30.23
2023-02-15T21:22:17.582Z,32.33
2023-02-15T21:24:50.317Z,30.30
2023-02-15T21:27:19.470Z,29.10
2023-02-15T21:29:49.229Z,26.10
2023-02-15T21:32:19.283Z,26.67
2023-02-15T21:34:47.707Z,37.67
2023-02-15T21:37:29.486Z,28.17
2023-02-15T21:39:57.930Z,28.43
2023-02-15T21:42:46.745Z,35.80
2023-02-15T21:45:35.300Z,33.27
2023-02-15T21:48:04.472Z,28.67
2023-02-15T21:50:50.884Z,40.13
2023-02-15T21:53:23.337Z,30.93
2023-02-15T21:55:52.959Z,28.43
2023-02-15T21:58:24.585Z,31.43
2023-02-15T22:00:55.745Z,45.83
2023-02-15T22:03:26.087Z,39.07
2023-02-15T22:05:54.434Z,31.17
2023-02-15T22:08:23.022Z,27.67
2023-02-15T22:10:51.950Z,39.17
2023-02-15T22:13:27.587Z,32.23
2023-02-15T22:15:58.368Z,58.93
2023-02-15T22:18:33.381Z,34.27
2023-02-15T22:21:04.573Z,47.20
2023-02-15T22:23:33.130Z,49.47
2023-02-15T22:26:06.328Z,37.77
2023-02-15T22:28:36.974Z,45.30
2023-02-15T22:31:11.594Z,53.87
2023-02-15T22:33:40.577Z,41.20
2023-02-15T22:36:22.931Z,32.73
2023-02-15T22:38:51.313Z,43.50
2023-02-15T22:41:21.222Z,42.77
2023-02-15T22:43:50.408Z,39.87
2023-02-15T22:46:22.693Z,61.70
2023-02-15T22:48:51.897Z,47.67
2023-02-15T22:51:22.575Z,40.80
2023-02-15T22:53:52.241Z,30.80
2023-02-15T22:56:27.350Z,46.63
2023-02-15T22:59:01.458Z,37.77
2023-02-15T23:01:34.179Z,48.70
2023-02-15T23:04:04.230Z,32.23
2023-02-15T23:06:35.340Z,48.03
2023-02-15T23:09:05.094Z,31.43
2023-02-15T23:11:53.009Z,35.77
2023-02-15T23:14:28.140Z,42.00
2023-02-15T23:16:58.025Z,33.27
2023-02-15T23:19:27.737Z,55.30
2023-02-15T23:21:56.370Z,44.03
2023-02-15T23:24:28.430Z,45.53
2023-02-15T23:27:17.886Z,47.67
2023-02-15T23:29:46.263Z,26.17
2023-02-15T23:32:17.328Z,33.67
2023-02-15T23:34:45.765Z,26.83
2023-02-15T23:37:15.794Z,26.37
2023-02-15T23:40:01.673Z,28.00
2023-02-15T23:42:34.706Z,32.27
2023-02-15T23:45:03.789Z,29.53
2023-02-15T23:47:53.933Z,27.70
2023-02-15T23:50:28.127Z,34.00
2023-02-15T23:52:58.847Z,37.87
2023-02-15T23:55:35.939Z,42.63
2023-02-15T23:58:06.629Z,25.90
